sensor_id;sensor_type;location;lat;lon;timestamp;P1;durP1;ratioP1;P2;durP2;ratioP2
80293;SDS011;69594;43.516;1.498;2023-11-21T00:02:02;15.45;;;2.00;;
80293;SDS011;69594;43.516;1.498;2023-11-21T00:04:29;9.35;;;1.75;;
80293;SDS011;69594;43.516;1.498;2023-11-21T00:06:54;10.37;;;1.97;;
80293;SDS011;69594;43.516;1.498;2023-11-21T00:09:20;8.27;;;1.73;;
80293;SDS011;69594;43.516;1.498;2023-11-21T00:11:45;9.55;;;1.40;;
80293;SDS011;69594;43.516;1.498;2023-11-21T00:14:11;5.17;;;1.83;;
80293;SDS011;69594;43.516;1.498;2023-11-21T00:16:36;11.97;;;2.00;;
80293;SDS011;69594;43.516;1.498;2023-11-21T00:19:01;9.07;;;1.43;;
80293;SDS011;69594;43.516;1.498;2023-11-21T00:21:27;9.23;;;1.80;;
80293;SDS011;69594;43.516;1.498;2023-11-21T00:23:52;8.75;;;1.85;;
80293;SDS011;69594;43.516;1.498;2023-11-21T00:26:17;12.13;;;2.33;;
80293;SDS011;69594;43.516;1.498;2023-11-21T00:28:43;10.07;;;2.13;;
80293;SDS011;69594;43.516;1.498;2023-11-21T00:31:08;7.67;;;1.60;;
80293;SDS011;69594;43.516;1.498;2023-11-21T00:33:33;9.30;;;1.90;;
80293;SDS011;69594;43.516;1.498;2023-11-21T00:35:59;11.03;;;2.03;;
80293;SDS011;69594;43.516;1.498;2023-11-21T00:38:25;13.57;;;2.28;;
80293;SDS011;69594;43.516;1.498;2023-11-21T00:40:50;7.57;;;1.20;;
80293;SDS011;69594;43.516;1.498;2023-11-21T00:43:16;8.93;;;1.90;;
80293;SDS011;69594;43.516;1.498;2023-11-21T00:45:41;10.90;;;1.40;;
80293;SDS011;69594;43.516;1.498;2023-11-21T00:48:07;10.73;;;1.50;;
80293;SDS011;69594;43.516;1.498;2023-11-21T00:50:33;6.10;;;1.23;;
80293;SDS011;69594;43.516;1.498;2023-11-21T00:52:58;7.67;;;1.20;;
80293;SDS011;69594;43.516;1.498;2023-11-21T00:55:24;9.73;;;1.40;;
80293;SDS011;69594;43.516;1.498;2023-11-21T00:57:51;5.97;;;1.40;;
80293;SDS011;69594;43.516;1.498;2023-11-21T01:00:16;8.57;;;1.33;;
80293;SDS011;69594;43.516;1.498;2023-11-21T01:02:45;10.13;;;1.45;;
80293;SDS011;69594;43.516;1.498;2023-11-21T01:05:11;7.05;;;1.67;;
80293;SDS011;69594;43.516;1.498;2023-11-21T01:07:37;9.77;;;1.40;;
80293;SDS011;69594;43.516;1.498;2023-11-21T01:10:03;7.27;;;1.27;;
80293;SDS011;69594;43.516;1.498;2023-11-21T01:12:31;10.18;;;1.95;;
80293;SDS011;69594;43.516;1.498;2023-11-21T01:14:56;11.77;;;1.30;;
80293;SDS011;69594;43.516;1.498;2023-11-21T01:17:25;8.73;;;1.63;;
80293;SDS011;69594;43.516;1.498;2023-11-21T01:19:50;11.93;;;1.10;;
80293;SDS011;69594;43.516;1.498;2023-11-21T01:22:15;7.20;;;1.20;;
80293;SDS011;69594;43.516;1.498;2023-11-21T01:24:41;6.38;;;1.17;;
80293;SDS011;69594;43.516;1.498;2023-11-21T01:27:06;9.60;;;1.50;;
80293;SDS011;69594;43.516;1.498;2023-11-21T01:29:32;11.87;;;1.50;;
80293;SDS011;69594;43.516;1.498;2023-11-21T01:31:57;6.50;;;1.50;;
80293;SDS011;69594;43.516;1.498;2023-11-21T01:34:22;9.87;;;1.23;;
80293;SDS011;69594;43.516;1.498;2023-11-21T01:36:48;9.15;;;1.55;;
80293;SDS011;69594;43.516;1.498;2023-11-21T01:39:13;10.30;;;1.60;;
80293;SDS011;69594;43.516;1.498;2023-11-21T01:41:40;10.63;;;1.30;;
80293;SDS011;69594;43.516;1.498;2023-11-21T01:44:05;8.80;;;1.07;;
80293;SDS011;69594;43.516;1.498;2023-11-21T01:46:34;9.37;;;1.50;;
80293;SDS011;69594;43.516;1.498;2023-11-21T01:48:59;4.32;;;1.55;;
80293;SDS011;69594;43.516;1.498;2023-11-21T01:51:25;6.77;;;1.03;;
80293;SDS011;69594;43.516;1.498;2023-11-21T01:53:51;3.70;;;0.90;;
80293;SDS011;69594;43.516;1.498;2023-11-21T01:56:17;15.70;;;1.40;;
80293;SDS011;69594;43.516;1.498;2023-11-21T01:58:43;5.53;;;1.13;;
80293;SDS011;69594;43.516;1.498;2023-11-21T02:01:08;4.53;;;1.00;;
80293;SDS011;69594;43.516;1.498;2023-11-21T02:03:34;7.03;;;1.40;;
80293;SDS011;69594;43.516;1.498;2023-11-21T02:06:00;7.20;;;1.20;;
80293;SDS011;69594;43.516;1.498;2023-11-21T02:08:25;7.83;;;1.30;;
80293;SDS011;69594;43.516;1.498;2023-11-21T02:10:51;8.13;;;1.20;;
80293;SDS011;69594;43.516;1.498;2023-11-21T02:13:17;5.20;;;1.97;;
80293;SDS011;69594;43.516;1.498;2023-11-21T02:15:42;11.83;;;1.80;;
80293;SDS011;69594;43.516;1.498;2023-11-21T02:18:08;8.80;;;1.48;;
80293;SDS011;69594;43.516;1.498;2023-11-21T02:20:36;7.50;;;1.10;;
80293;SDS011;69594;43.516;1.498;2023-11-21T02:23:03;3.67;;;0.95;;
80293;SDS011;69594;43.516;1.498;2023-11-21T02:25:30;3.85;;;0.82;;
80293;SDS011;69594;43.516;1.498;2023-11-21T02:27:57;7.30;;;0.80;;
80293;SDS011;69594;43.516;1.498;2023-11-21T02:30:22;5.47;;;1.20;;
80293;SDS011;69594;43.516;1.498;2023-11-21T02:32:50;8.70;;;1.23;;
80293;SDS011;69594;43.516;1.498;2023-11-21T02:35:18;7.32;;;1.27;;
80293;SDS011;69594;43.516;1.498;2023-11-21T02:37:43;5.50;;;1.10;;
80293;SDS011;69594;43.516;1.498;2023-11-21T02:40:09;6.43;;;1.53;;
80293;SDS011;69594;43.516;1.498;2023-11-21T02:42:34;4.68;;;0.80;;
80293;SDS011;69594;43.516;1.498;2023-11-21T02:45:00;9.55;;;1.38;;
80293;SDS011;69594;43.516;1.498;2023-11-21T02:47:25;4.53;;;0.80;;
80293;SDS011;69594;43.516;1.498;2023-11-21T02:49:51;8.33;;;1.40;;
80293;SDS011;69594;43.516;1.498;2023-11-21T02:52:17;8.02;;;1.00;;
80293;SDS011;69594;43.516;1.498;2023-11-21T02:54:42;8.67;;;1.40;;
80293;SDS011;69594;43.516;1.498;2023-11-21T02:57:08;4.87;;;0.90;;
80293;SDS011;69594;43.516;1.498;2023-11-21T02:59:33;4.43;;;1.10;;
80293;SDS011;69594;43.516;1.498;2023-11-21T03:01:59;4.65;;;0.70;;
80293;SDS011;69594;43.516;1.498;2023-11-21T03:04:25;5.23;;;1.00;;
80293;SDS011;69594;43.516;1.498;2023-11-21T03:06:51;6.90;;;0.90;;
80293;SDS011;69594;43.516;1.498;2023-11-21T03:09:16;3.77;;;0.73;;
80293;SDS011;69594;43.516;1.498;2023-11-21T03:11:41;7.40;;;1.00;;
80293;SDS011;69594;43.516;1.498;2023-11-21T03:14:07;6.63;;;1.30;;
80293;SDS011;69594;43.516;1.498;2023-11-21T03:16:32;3.70;;;1.20;;
80293;SDS011;69594;43.516;1.498;2023-11-21T03:18:57;7.32;;;0.90;;
80293;SDS011;69594;43.516;1.498;2023-11-21T03:21:23;5.53;;;0.90;;
80293;SDS011;69594;43.516;1.498;2023-11-21T03:23:49;4.78;;;0.77;;
80293;SDS011;69594;43.516;1.498;2023-11-21T03:26:15;5.80;;;0.80;;
80293;SDS011;69594;43.516;1.498;2023-11-21T03:28:40;5.10;;;1.00;;
80293;SDS011;69594;43.516;1.498;2023-11-21T03:31:05;4.80;;;0.80;;
80293;SDS011;69594;43.516;1.498;2023-11-21T03:33:31;6.40;;;1.00;;
80293;SDS011;69594;43.516;1.498;2023-11-21T03:35:57;8.82;;;1.10;;
80293;SDS011;69594;43.516;1.498;2023-11-21T03:38:22;6.73;;;0.97;;
80293;SDS011;69594;43.516;1.498;2023-11-21T03:40:47;2.53;;;1.10;;
80293;SDS011;69594;43.516;1.498;2023-11-21T03:43:13;7.37;;;0.87;;
80293;SDS011;69594;43.516;1.498;2023-11-21T03:45:38;6.30;;;0.90;;
80293;SDS011;69594;43.516;1.498;2023-11-21T03:48:05;9.30;;;1.40;;
80293;SDS011;69594;43.516;1.498;2023-11-21T03:50:31;3.73;;;0.80;;
80293;SDS011;69594;43.516;1.498;2023-11-21T03:52:56;4.95;;;0.90;;
80293;SDS011;69594;43.516;1.498;2023-11-21T03:55:22;4.13;;;0.90;;
80293;SDS011;69594;43.516;1.498;2023-11-21T03:57:49;9.18;;;1.10;;
80293;SDS011;69594;43.516;1.498;2023-11-21T04:00:14;8.43;;;1.00;;
80293;SDS011;69594;43.516;1.498;2023-11-21T04:02:39;7.50;;;1.20;;
80293;SDS011;69594;43.516;1.498;2023-11-21T04:05:05;4.95;;;0.60;;
80293;SDS011;69594;43.516;1.498;2023-11-21T04:07:32;4.60;;;1.00;;
80293;SDS011;69594;43.516;1.498;2023-11-21T04:09:57;6.57;;;1.00;;
80293;SDS011;69594;43.516;1.498;2023-11-21T04:12:22;5.13;;;1.08;;
80293;SDS011;69594;43.516;1.498;2023-11-21T04:14:48;7.23;;;0.90;;
80293;SDS011;69594;43.516;1.498;2023-11-21T04:17:13;7.07;;;1.50;;
80293;SDS011;69594;43.516;1.498;2023-11-21T04:19:38;7.90;;;1.00;;
80293;SDS011;69594;43.516;1.498;2023-11-21T04:22:03;7.97;;;1.07;;
80293;SDS011;69594;43.516;1.498;2023-11-21T04:24:29;6.27;;;1.20;;
80293;SDS011;69594;43.516;1.498;2023-11-21T04:26:54;4.83;;;1.20;;
80293;SDS011;69594;43.516;1.498;2023-11-21T04:29:19;10.53;;;1.23;;
80293;SDS011;69594;43.516;1.498;2023-11-21T04:31:45;4.57;;;0.70;;
80293;SDS011;69594;43.516;1.498;2023-11-21T04:34:11;5.25;;;0.90;;
80293;SDS011;69594;43.516;1.498;2023-11-21T04:36:36;6.63;;;1.30;;
80293;SDS011;69594;43.516;1.498;2023-11-21T04:39:02;5.20;;;0.70;;
80293;SDS011;69594;43.516;1.498;2023-11-21T04:41:27;5.75;;;0.80;;
80293;SDS011;69594;43.516;1.498;2023-11-21T04:43:52;8.07;;;1.00;;
80293;SDS011;69594;43.516;1.498;2023-11-21T04:46:18;11.67;;;1.03;;
80293;SDS011;69594;43.516;1.498;2023-11-21T04:48:43;4.87;;;0.80;;
80293;SDS011;69594;43.516;1.498;2023-11-21T04:51:09;7.60;;;0.73;;
80293;SDS011;69594;43.516;1.498;2023-11-21T04:53:36;4.13;;;1.08;;
80293;SDS011;69594;43.516;1.498;2023-11-21T04:56:01;6.82;;;0.80;;
80293;SDS011;69594;43.516;1.498;2023-11-21T04:58:28;5.55;;;1.20;;
80293;SDS011;69594;43.516;1.498;2023-11-21T05:00:53;5.87;;;0.83;;
80293;SDS011;69594;43.516;1.498;2023-11-21T05:03:18;5.90;;;0.97;;
80293;SDS011;69594;43.516;1.498;2023-11-21T05:05:44;5.53;;;1.30;;
80293;SDS011;69594;43.516;1.498;2023-11-21T05:08:09;3.90;;;1.03;;
80293;SDS011;69594;43.516;1.498;2023-11-21T05:10:34;6.13;;;0.97;;
80293;SDS011;69594;43.516;1.498;2023-11-21T05:13:03;2.40;;;0.90;;
80293;SDS011;69594;43.516;1.498;2023-11-21T05:15:28;5.13;;;1.37;;
80293;SDS011;69594;43.516;1.498;2023-11-21T05:17:54;3.85;;;0.90;;
80293;SDS011;69594;43.516;1.498;2023-11-21T05:20:20;6.32;;;0.80;;
80293;SDS011;69594;43.516;1.498;2023-11-21T05:22:49;7.90;;;1.15;;
80293;SDS011;69594;43.516;1.498;2023-11-21T05:25:14;4.78;;;0.90;;
80293;SDS011;69594;43.516;1.498;2023-11-21T05:27:40;4.80;;;0.70;;
80293;SDS011;69594;43.516;1.498;2023-11-21T05:30:05;3.03;;;0.77;;
80293;SDS011;69594;43.516;1.498;2023-11-21T05:32:31;6.30;;;1.10;;
80293;SDS011;69594;43.516;1.498;2023-11-21T05:34:56;3.65;;;0.80;;
80293;SDS011;69594;43.516;1.498;2023-11-21T05:37:21;4.20;;;0.90;;
80293;SDS011;69594;43.516;1.498;2023-11-21T05:39:48;8.55;;;1.38;;
80293;SDS011;69594;43.516;1.498;2023-11-21T05:42:13;3.67;;;1.20;;
80293;SDS011;69594;43.516;1.498;2023-11-21T05:44:40;2.90;;;0.77;;
80293;SDS011;69594;43.516;1.498;2023-11-21T05:47:06;2.67;;;0.70;;
80293;SDS011;69594;43.516;1.498;2023-11-21T05:49:32;2.92;;;0.70;;
80293;SDS011;69594;43.516;1.498;2023-11-21T05:51:58;3.92;;;0.70;;
80293;SDS011;69594;43.516;1.498;2023-11-21T05:54:24;4.72;;;0.60;;
80293;SDS011;69594;43.516;1.498;2023-11-21T05:56:50;5.37;;;0.90;;
80293;SDS011;69594;43.516;1.498;2023-11-21T05:59:15;5.00;;;1.00;;
80293;SDS011;69594;43.516;1.498;2023-11-21T06:01:40;5.50;;;0.70;;
80293;SDS011;69594;43.516;1.498;2023-11-21T06:04:05;2.90;;;0.93;;
80293;SDS011;69594;43.516;1.498;2023-11-21T06:06:33;5.88;;;2.03;;
80293;SDS011;69594;43.516;1.498;2023-11-21T06:08:58;6.00;;;2.20;;
80293;SDS011;69594;43.516;1.498;2023-11-21T06:11:23;4.57;;;1.03;;
80293;SDS011;69594;43.516;1.498;2023-11-21T06:13:49;11.00;;;1.27;;
80293;SDS011;69594;43.516;1.498;2023-11-21T06:16:15;3.45;;;0.95;;
80293;SDS011;69594;43.516;1.498;2023-11-21T06:18:42;3.45;;;0.70;;
80293;SDS011;69594;43.516;1.498;2023-11-21T06:21:11;2.88;;;0.80;;
80293;SDS011;69594;43.516;1.498;2023-11-21T06:23:36;8.55;;;1.05;;
80293;SDS011;69594;43.516;1.498;2023-11-21T06:26:02;6.30;;;0.60;;
80293;SDS011;69594;43.516;1.498;2023-11-21T06:28:27;6.43;;;0.70;;
80293;SDS011;69594;43.516;1.498;2023-11-21T06:30:52;3.93;;;1.07;;
80293;SDS011;69594;43.516;1.498;2023-11-21T06:33:18;1.92;;;0.65;;
80293;SDS011;69594;43.516;1.498;2023-11-21T06:35:44;2.80;;;0.60;;
80293;SDS011;69594;43.516;1.498;2023-11-21T06:38:09;5.45;;;0.70;;
80293;SDS011;69594;43.516;1.498;2023-11-21T06:40:35;6.73;;;1.77;;
80293;SDS011;69594;43.516;1.498;2023-11-21T06:43:00;3.20;;;0.90;;
80293;SDS011;69594;43.516;1.498;2023-11-21T06:45:25;6.03;;;0.80;;
80293;SDS011;69594;43.516;1.498;2023-11-21T06:47:51;0.80;;;0.40;;
80293;SDS011;69594;43.516;1.498;2023-11-21T06:50:16;4.50;;;1.07;;
80293;SDS011;69594;43.516;1.498;2023-11-21T06:52:41;4.10;;;1.00;;
80293;SDS011;69594;43.516;1.498;2023-11-21T06:55:08;4.47;;;1.80;;
80293;SDS011;69594;43.516;1.498;2023-11-21T06:57:33;2.97;;;0.70;;
80293;SDS011;69594;43.516;1.498;2023-11-21T06:59:58;4.93;;;0.90;;
80293;SDS011;69594;43.516;1.498;2023-11-21T07:02:24;3.10;;;0.60;;
80293;SDS011;69594;43.516;1.498;2023-11-21T07:04:49;5.87;;;0.70;;
80293;SDS011;69594;43.516;1.498;2023-11-21T07:07:15;4.37;;;0.80;;
80293;SDS011;69594;43.516;1.498;2023-11-21T07:09:40;2.77;;;1.00;;
80293;SDS011;69594;43.516;1.498;2023-11-21T07:12:06;1.95;;;0.65;;
80293;SDS011;69594;43.516;1.498;2023-11-21T07:14:33;7.32;;;0.90;;
80293;SDS011;69594;43.516;1.498;2023-11-21T07:16:58;3.20;;;0.63;;
80293;SDS011;69594;43.516;1.498;2023-11-21T07:19:23;3.40;;;0.63;;
80293;SDS011;69594;43.516;1.498;2023-11-21T07:21:49;2.38;;;1.13;;
80293;SDS011;69594;43.516;1.498;2023-11-21T07:24:18;3.65;;;0.80;;
80293;SDS011;69594;43.516;1.498;2023-11-21T07:26:43;6.00;;;0.93;;
80293;SDS011;69594;43.516;1.498;2023-11-21T07:29:09;4.27;;;0.90;;
80293;SDS011;69594;43.516;1.498;2023-11-21T07:31:34;4.63;;;1.20;;
80293;SDS011;69594;43.516;1.498;2023-11-21T07:33:59;4.20;;;1.02;;
80293;SDS011;69594;43.516;1.498;2023-11-21T07:36:25;2.40;;;0.60;;
80293;SDS011;69594;43.516;1.498;2023-11-21T07:38:50;3.70;;;0.80;;
80293;SDS011;69594;43.516;1.498;2023-11-21T07:41:16;6.60;;;0.90;;
80293;SDS011;69594;43.516;1.498;2023-11-21T07:43:42;4.82;;;1.00;;
80293;SDS011;69594;43.516;1.498;2023-11-21T07:46:08;2.22;;;0.80;;
80293;SDS011;69594;43.516;1.498;2023-11-21T07:48:34;5.77;;;1.10;;
80293;SDS011;69594;43.516;1.498;2023-11-21T07:50:59;3.53;;;1.60;;
80293;SDS011;69594;43.516;1.498;2023-11-21T07:53:25;4.90;;;1.17;;
80293;SDS011;69594;43.516;1.498;2023-11-21T07:55:51;6.03;;;1.07;;
80293;SDS011;69594;43.516;1.498;2023-11-21T07:58:16;2.43;;;0.63;;
80293;SDS011;69594;43.516;1.498;2023-11-21T08:00:41;2.28;;;0.82;;
80293;SDS011;69594;43.516;1.498;2023-11-21T08:03:07;4.93;;;0.70;;
80293;SDS011;69594;43.516;1.498;2023-11-21T08:05:32;7.40;;;1.13;;
80293;SDS011;69594;43.516;1.498;2023-11-21T08:07:57;1.60;;;0.70;;
80293;SDS011;69594;43.516;1.498;2023-11-21T08:10:23;3.20;;;0.90;;
80293;SDS011;69594;43.516;1.498;2023-11-21T08:12:48;3.45;;;0.80;;
80293;SDS011;69594;43.516;1.498;2023-11-21T08:15:15;2.13;;;0.80;;
80293;SDS011;69594;43.516;1.498;2023-11-21T08:17:40;2.57;;;0.73;;
80293;SDS011;69594;43.516;1.498;2023-11-21T08:20:06;2.60;;;1.53;;
80293;SDS011;69594;43.516;1.498;2023-11-21T08:22:33;2.28;;;1.10;;
80293;SDS011;69594;43.516;1.498;2023-11-21T08:24:59;4.35;;;1.00;;
80293;SDS011;69594;43.516;1.498;2023-11-21T08:27:24;5.13;;;1.07;;
80293;SDS011;69594;43.516;1.498;2023-11-21T08:29:50;2.93;;;0.83;;
80293;SDS011;69594;43.516;1.498;2023-11-21T08:32:15;3.20;;;1.05;;
80293;SDS011;69594;43.516;1.498;2023-11-21T08:34:41;8.90;;;1.50;;
80293;SDS011;69594;43.516;1.498;2023-11-21T08:37:08;2.92;;;1.30;;
80293;SDS011;69594;43.516;1.498;2023-11-21T08:39:33;2.55;;;0.80;;
80293;SDS011;69594;43.516;1.498;2023-11-21T08:41:58;2.30;;;0.80;;
80293;SDS011;69594;43.516;1.498;2023-11-21T08:44:24;4.67;;;1.27;;
80293;SDS011;69594;43.516;1.498;2023-11-21T08:46:49;4.05;;;1.42;;
80293;SDS011;69594;43.516;1.498;2023-11-21T08:49:15;2.30;;;1.23;;
80293;SDS011;69594;43.516;1.498;2023-11-21T08:51:40;3.13;;;1.00;;
80293;SDS011;69594;43.516;1.498;2023-11-21T08:54:06;7.83;;;1.70;;
80293;SDS011;69594;43.516;1.498;2023-11-21T08:56:33;5.00;;;1.20;;
80293;SDS011;69594;43.516;1.498;2023-11-21T08:58:58;1.73;;;0.90;;
80293;SDS011;69594;43.516;1.498;2023-11-21T09:01:27;1.50;;;0.77;;
80293;SDS011;69594;43.516;1.498;2023-11-21T09:03:52;2.57;;;1.10;;
80293;SDS011;69594;43.516;1.498;2023-11-21T09:06:17;4.88;;;1.00;;
80293;SDS011;69594;43.516;1.498;2023-11-21T09:08:43;4.73;;;0.93;;
80293;SDS011;69594;43.516;1.498;2023-11-21T09:11:08;2.50;;;0.90;;
80293;SDS011;69594;43.516;1.498;2023-11-21T09:13:34;4.17;;;1.10;;
80293;SDS011;69594;43.516;1.498;2023-11-21T09:15:59;3.47;;;1.10;;
80293;SDS011;69594;43.516;1.498;2023-11-21T09:18:24;3.63;;;1.27;;
80293;SDS011;69594;43.516;1.498;2023-11-21T09:20:50;1.43;;;1.00;;
80293;SDS011;69594;43.516;1.498;2023-11-21T09:23:15;2.50;;;1.10;;
80293;SDS011;69594;43.516;1.498;2023-11-21T09:25:40;1.47;;;0.73;;
80293;SDS011;69594;43.516;1.498;2023-11-21T09:28:06;3.63;;;0.80;;
80293;SDS011;69594;43.516;1.498;2023-11-21T09:30:33;2.55;;;0.90;;
80293;SDS011;69594;43.516;1.498;2023-11-21T09:33:00;2.13;;;0.70;;
80293;SDS011;69594;43.516;1.498;2023-11-21T09:35:25;2.30;;;0.70;;
80293;SDS011;69594;43.516;1.498;2023-11-21T09:37:51;3.10;;;1.30;;
80293;SDS011;69594;43.516;1.498;2023-11-21T09:40:19;5.85;;;1.05;;
80293;SDS011;69594;43.516;1.498;2023-11-21T09:42:56;1.90;;;0.93;;
80293;SDS011;69594;43.516;1.498;2023-11-21T09:47:51;3.72;;;1.90;;
80293;SDS011;69594;43.516;1.498;2023-11-21T09:50:17;1.63;;;0.80;;
80293;SDS011;69594;43.516;1.498;2023-11-21T09:55:13;2.58;;;0.80;;
80293;SDS011;69594;43.516;1.498;2023-11-21T09:57:40;1.80;;;0.90;;
80293;SDS011;69594;43.516;1.498;2023-11-21T10:00:09;1.83;;;0.90;;
80293;SDS011;69594;43.516;1.498;2023-11-21T10:02:36;3.40;;;1.08;;
80293;SDS011;69594;43.516;1.498;2023-11-21T10:05:03;3.70;;;0.90;;
80293;SDS011;69594;43.516;1.498;2023-11-21T10:07:29;3.67;;;0.75;;
80293;SDS011;69594;43.516;1.498;2023-11-21T10:09:56;3.03;;;0.80;;
80293;SDS011;69594;43.516;1.498;2023-11-21T10:12:25;2.67;;;0.80;;
80293;SDS011;69594;43.516;1.498;2023-11-21T10:14:51;1.98;;;0.70;;
80293;SDS011;69594;43.516;1.498;2023-11-21T10:17:20;1.02;;;0.63;;
80293;SDS011;69594;43.516;1.498;2023-11-21T10:19:49;4.88;;;1.17;;
80293;SDS011;69594;43.516;1.498;2023-11-21T10:22:15;1.50;;;0.60;;
80293;SDS011;69594;43.516;1.498;2023-11-21T10:24:41;1.90;;;0.80;;
80293;SDS011;69594;43.516;1.498;2023-11-21T10:27:08;2.13;;;0.93;;
80293;SDS011;69594;43.516;1.498;2023-11-21T10:29:33;2.60;;;0.80;;
80293;SDS011;69594;43.516;1.498;2023-11-21T10:32:01;2.13;;;0.70;;
80293;SDS011;69594;43.516;1.498;2023-11-21T10:34:26;1.85;;;0.80;;
80293;SDS011;69594;43.516;1.498;2023-11-21T10:36:52;1.00;;;0.70;;
80293;SDS011;69594;43.516;1.498;2023-11-21T10:39:18;1.20;;;0.80;;
80293;SDS011;69594;43.516;1.498;2023-11-21T10:41:47;1.67;;;0.80;;
80293;SDS011;69594;43.516;1.498;2023-11-21T10:44:18;1.75;;;0.75;;
80293;SDS011;69594;43.516;1.498;2023-11-21T10:46:52;2.67;;;0.70;;
80293;SDS011;69594;43.516;1.498;2023-11-21T10:49:21;0.75;;;0.50;;
80293;SDS011;69594;43.516;1.498;2023-11-21T10:51:47;1.70;;;0.70;;
80293;SDS011;69594;43.516;1.498;2023-11-21T10:54:19;1.38;;;0.47;;
80293;SDS011;69594;43.516;1.498;2023-11-21T10:56:45;1.23;;;0.70;;
80293;SDS011;69594;43.516;1.498;2023-11-21T10:59:11;1.03;;;0.60;;
80293;SDS011;69594;43.516;1.498;2023-11-21T11:01:40;1.92;;;0.77;;
80293;SDS011;69594;43.516;1.498;2023-11-21T11:04:06;2.83;;;0.80;;
80293;SDS011;69594;43.516;1.498;2023-11-21T11:06:34;1.75;;;0.93;;
80293;SDS011;69594;43.516;1.498;2023-11-21T11:09:00;2.60;;;0.82;;
80293;SDS011;69594;43.516;1.498;2023-11-21T11:11:27;1.98;;;0.85;;
80293;SDS011;69594;43.516;1.498;2023-11-21T11:13:53;3.95;;;0.95;;
80293;SDS011;69594;43.516;1.498;2023-11-21T11:16:18;2.67;;;0.90;;
80293;SDS011;69594;43.516;1.498;2023-11-21T11:18:44;2.38;;;1.00;;
80293;SDS011;69594;43.516;1.498;2023-11-21T11:23:57;2.93;;;0.80;;
80293;SDS011;69594;43.516;1.498;2023-11-21T11:26:36;2.13;;;0.95;;
80293;SDS011;69594;43.516;1.498;2023-11-21T11:31:55;2.80;;;1.35;;
80293;SDS011;69594;43.516;1.498;2023-11-21T11:39:44;2.25;;;1.42;;
80293;SDS011;69594;43.516;1.498;2023-11-21T11:42:13;1.73;;;1.10;;
80293;SDS011;69594;43.516;1.498;2023-11-21T11:47:32;2.38;;;1.00;;
80293;SDS011;69594;43.516;1.498;2023-11-21T11:49:59;2.75;;;1.30;;
80293;SDS011;69594;43.516;1.498;2023-11-21T11:52:31;3.35;;;1.00;;
80293;SDS011;69594;43.516;1.498;2023-11-21T11:55:10;1.60;;;0.90;;
80293;SDS011;69594;43.516;1.498;2023-11-21T11:57:36;1.90;;;1.10;;
80293;SDS011;69594;43.516;1.498;2023-11-21T12:00:19;4.88;;;1.10;;
80293;SDS011;69594;43.516;1.498;2023-11-21T12:02:46;3.03;;;1.00;;
80293;SDS011;69594;43.516;1.498;2023-11-21T12:05:12;2.40;;;1.10;;
80293;SDS011;69594;43.516;1.498;2023-11-21T12:07:40;2.47;;;1.05;;
80293;SDS011;69594;43.516;1.498;2023-11-21T12:10:06;1.48;;;0.80;;
80293;SDS011;69594;43.516;1.498;2023-11-21T12:12:31;3.73;;;1.10;;
80293;SDS011;69594;43.516;1.498;2023-11-21T12:14:58;1.50;;;1.00;;
80293;SDS011;69594;43.516;1.498;2023-11-21T12:17:23;1.57;;;1.00;;
80293;SDS011;69594;43.516;1.498;2023-11-21T12:19:49;1.70;;;0.80;;
80293;SDS011;69594;43.516;1.498;2023-11-21T12:22:17;1.48;;;0.88;;
80293;SDS011;69594;43.516;1.498;2023-11-21T12:24:43;2.22;;;0.90;;
80293;SDS011;69594;43.516;1.498;2023-11-21T12:27:09;2.30;;;1.13;;
80293;SDS011;69594;43.516;1.498;2023-11-21T12:29:34;2.87;;;1.47;;
80293;SDS011;69594;43.516;1.498;2023-11-21T12:31:59;2.43;;;1.17;;
80293;SDS011;69594;43.516;1.498;2023-11-21T12:34:25;3.07;;;1.20;;
80293;SDS011;69594;43.516;1.498;2023-11-21T12:36:50;1.93;;;0.80;;
80293;SDS011;69594;43.516;1.498;2023-11-21T12:39:17;1.83;;;0.85;;
80293;SDS011;69594;43.516;1.498;2023-11-21T12:41:42;2.27;;;0.97;;
80293;SDS011;69594;43.516;1.498;2023-11-21T12:44:12;2.63;;;1.07;;
80293;SDS011;69594;43.516;1.498;2023-11-21T12:46:40;1.35;;;0.80;;
80293;SDS011;69594;43.516;1.498;2023-11-21T12:49:06;1.95;;;1.20;;
80293;SDS011;69594;43.516;1.498;2023-11-21T12:51:31;2.83;;;1.10;;
80293;SDS011;69594;43.516;1.498;2023-11-21T12:53:56;1.07;;;0.70;;
80293;SDS011;69594;43.516;1.498;2023-11-21T12:56:23;1.70;;;0.90;;
80293;SDS011;69594;43.516;1.498;2023-11-21T12:58:49;3.15;;;0.80;;
80293;SDS011;69594;43.516;1.498;2023-11-21T13:01:16;2.20;;;1.17;;
80293;SDS011;69594;43.516;1.498;2023-11-21T13:03:45;1.25;;;0.80;;
80293;SDS011;69594;43.516;1.498;2023-11-21T13:06:13;2.55;;;1.50;;
80293;SDS011;69594;43.516;1.498;2023-11-21T13:08:38;1.80;;;1.00;;
80293;SDS011;69594;43.516;1.498;2023-11-21T13:11:04;2.40;;;0.73;;
80293;SDS011;69594;43.516;1.498;2023-11-21T13:13:31;1.20;;;0.80;;
80293;SDS011;69594;43.516;1.498;2023-11-21T13:16:00;2.28;;;0.90;;
80293;SDS011;69594;43.516;1.498;2023-11-21T13:18:26;1.83;;;0.98;;
80293;SDS011;69594;43.516;1.498;2023-11-21T13:20:55;2.50;;;1.40;;
80293;SDS011;69594;43.516;1.498;2023-11-21T13:23:22;2.33;;;1.05;;
80293;SDS011;69594;43.516;1.498;2023-11-21T13:25:48;5.38;;;2.60;;
80293;SDS011;69594;43.516;1.498;2023-11-21T13:28:14;2.78;;;1.52;;
80293;SDS011;69594;43.516;1.498;2023-11-21T13:30:40;2.43;;;1.10;;
80293;SDS011;69594;43.516;1.498;2023-11-21T13:33:06;3.65;;;1.30;;
80293;SDS011;69594;43.516;1.498;2023-11-21T13:35:39;2.27;;;1.20;;
80293;SDS011;69594;43.516;1.498;2023-11-21T13:38:09;2.90;;;1.05;;
80293;SDS011;69594;43.516;1.498;2023-11-21T13:40:35;1.73;;;1.20;;
80293;SDS011;69594;43.516;1.498;2023-11-21T13:43:08;1.90;;;1.17;;
80293;SDS011;69594;43.516;1.498;2023-11-21T13:45:38;2.70;;;1.15;;
80293;SDS011;69594;43.516;1.498;2023-11-21T13:48:06;2.90;;;1.70;;
80293;SDS011;69594;43.516;1.498;2023-11-21T13:50:45;5.65;;;1.08;;
80293;SDS011;69594;43.516;1.498;2023-11-21T13:53:20;1.85;;;1.10;;
80293;SDS011;69594;43.516;1.498;2023-11-21T13:55:52;2.53;;;1.30;;
80293;SDS011;69594;43.516;1.498;2023-11-21T13:58:22;2.03;;;1.00;;
80293;SDS011;69594;43.516;1.498;2023-11-21T14:00:51;3.33;;;1.23;;
80293;SDS011;69594;43.516;1.498;2023-11-21T14:03:22;1.88;;;1.13;;
80293;SDS011;69594;43.516;1.498;2023-11-21T14:05:49;2.63;;;1.40;;
80293;SDS011;69594;43.516;1.498;2023-11-21T14:08:19;2.42;;;1.00;;
80293;SDS011;69594;43.516;1.498;2023-11-21T14:10:46;1.23;;;0.93;;
80293;SDS011;69594;43.516;1.498;2023-11-21T14:13:19;4.20;;;1.50;;
80293;SDS011;69594;43.516;1.498;2023-11-21T14:15:48;3.00;;;1.70;;
80293;SDS011;69594;43.516;1.498;2023-11-21T14:18:16;9.55;;;1.58;;
80293;SDS011;69594;43.516;1.498;2023-11-21T14:20:42;1.88;;;1.20;;
80293;SDS011;69594;43.516;1.498;2023-11-21T14:23:08;3.53;;;1.60;;
80293;SDS011;69594;43.516;1.498;2023-11-21T14:25:34;7.77;;;1.83;;
80293;SDS011;69594;43.516;1.498;2023-11-21T14:27:59;2.40;;;1.20;;
80293;SDS011;69594;43.516;1.498;2023-11-21T14:30:24;2.23;;;1.00;;
80293;SDS011;69594;43.516;1.498;2023-11-21T14:32:51;3.38;;;1.17;;
80293;SDS011;69594;43.516;1.498;2023-11-21T14:35:16;2.77;;;1.60;;
80293;SDS011;69594;43.516;1.498;2023-11-21T14:37:42;1.40;;;1.17;;
80293;SDS011;69594;43.516;1.498;2023-11-21T14:40:07;3.07;;;1.30;;
80293;SDS011;69594;43.516;1.498;2023-11-21T14:42:34;2.67;;;1.48;;
80293;SDS011;69594;43.516;1.498;2023-11-21T14:45:03;4.25;;;1.30;;
80293;SDS011;69594;43.516;1.498;2023-11-21T14:47:31;3.53;;;1.50;;
80293;SDS011;69594;43.516;1.498;2023-11-21T14:49:57;1.97;;;1.10;;
80293;SDS011;69594;43.516;1.498;2023-11-21T14:52:25;3.30;;;1.10;;
80293;SDS011;69594;43.516;1.498;2023-11-21T14:55:05;5.47;;;2.00;;
80293;SDS011;69594;43.516;1.498;2023-11-21T14:57:52;2.60;;;1.35;;
80293;SDS011;69594;43.516;1.498;2023-11-21T15:00:18;5.17;;;1.30;;
80293;SDS011;69594;43.516;1.498;2023-11-21T15:02:59;5.60;;;1.70;;